Thornville, Ohio
Current Conditions -  °F | °C
As of 9:20 AM on Monday 26 Jan 2015 (Local Time) from KVTA Reporting Station
Light Snow Light Snow  
Wind Chill: 14°   Ceiling: 4200
Heat Index: 23°   Visibility: 3mi
Dew Point: 18°   Wind: 8mph
Humidity: 81%   Direction: 360°N
Pressure: 29.78"   Gusts: NA
Location:  39.9°N, 82.42°W
Report Text: KVTA 261420Z AUTO 36007KT 3SM -SN BKN042 OVC055 M05/M08 A2978 RMK AO2 P0000 T10501078
Loading
Personal Weather Stations






























Interactive Weather Map New forecast layout! Learn more

10-Day Weather Forecast

Advertisements
Track Severe Weather on mobile